createdAt,value
2023-04-10T00:00:04.202Z,13.10
2023-04-10T00:02:31.467Z,13.10
2023-04-10T00:04:58.792Z,13.10
2023-04-10T00:07:26.589Z,13.00
2023-04-10T00:09:53.750Z,13.00
2023-04-10T00:12:20.971Z,13.00
2023-04-10T00:14:48.139Z,13.00
2023-04-10T00:17:15.531Z,13.00
2023-04-10T00:19:42.575Z,13.00
2023-04-10T00:22:09.631Z,12.90
2023-04-10T00:24:36.747Z,13.00
2023-04-10T00:27:03.874Z,12.90
2023-04-10T00:29:31.163Z,12.90
2023-04-10T00:31:58.358Z,12.90
2023-04-10T00:34:25.888Z,13.00
2023-04-10T00:36:52.785Z,12.90
2023-04-10T00:39:19.961Z,12.90
2023-04-10T00:41:46.862Z,12.80
2023-04-10T00:44:13.762Z,12.80
2023-04-10T00:46:41.461Z,12.90
2023-04-10T00:49:09.718Z,13.00
2023-04-10T00:51:39.704Z,13.00
2023-04-10T00:54:06.799Z,12.90
2023-04-10T00:56:33.967Z,12.90
2023-04-10T00:59:04.062Z,12.90
2023-04-10T01:01:32.064Z,13.00
2023-04-10T01:03:59.868Z,12.90
2023-04-10T01:06:41.970Z,12.90
2023-04-10T01:09:12.218Z,12.80
2023-04-10T01:11:54.709Z,12.80
2023-04-10T01:14:53.531Z,12.70
2023-04-10T01:17:48.929Z,12.60
2023-04-10T01:20:32.645Z,12.60
2023-04-10T01:23:02.494Z,12.60
2023-04-10T01:25:40.586Z,12.60
2023-04-10T01:28:19.593Z,12.60
2023-04-10T01:30:53.978Z,12.60
2023-04-10T01:33:22.848Z,12.70
2023-04-10T01:35:53.372Z,12.70
2023-04-10T01:38:24.292Z,12.70
2023-04-10T01:40:53.000Z,12.90
2023-04-10T01:43:22.357Z,12.80
2023-04-10T01:45:51.888Z,12.70
2023-04-10T01:48:19.541Z,12.80
2023-04-10T01:50:48.106Z,12.80
2023-04-10T01:53:15.946Z,12.90
2023-04-10T01:55:43.338Z,12.90
2023-04-10T01:58:10.707Z,12.90
2023-04-10T02:00:42.933Z,12.90
2023-04-10T02:03:11.018Z,12.90
2023-04-10T02:06:03.779Z,12.90
2023-04-10T02:08:57.435Z,12.90
2023-04-10T02:12:03.630Z,12.90
2023-04-10T02:14:32.750Z,12.90
2023-04-10T02:17:01.904Z,12.90
2023-04-10T02:19:31.302Z,12.90
2023-04-10T02:21:59.176Z,13.10
2023-04-10T02:24:26.351Z,13.20
2023-04-10T02:26:53.884Z,13.10
2023-04-10T02:29:20.718Z,13.20
2023-04-10T02:31:47.737Z,13.20
2023-04-10T02:34:14.775Z,13.20
2023-04-10T02:36:41.986Z,13.10
2023-04-10T02:39:09.144Z,12.90
2023-04-10T02:41:36.042Z,12.90
2023-04-10T02:44:02.898Z,12.90
2023-04-10T02:46:29.794Z,13.10
2023-04-10T02:48:56.883Z,13.00
2023-04-10T02:51:23.774Z,12.80
2023-04-10T02:53:53.141Z,12.70
2023-04-10T02:56:20.874Z,12.80
2023-04-10T02:58:47.993Z,12.80
2023-04-10T03:01:14.979Z,12.70
2023-04-10T03:03:42.007Z,12.70
2023-04-10T03:06:10.751Z,12.70
2023-04-10T03:08:37.653Z,12.70
2023-04-10T03:11:04.599Z,12.60
2023-04-10T03:13:31.468Z,12.70
2023-04-10T03:15:58.273Z,12.70
2023-04-10T03:18:25.419Z,12.50
2023-04-10T03:20:52.238Z,12.50
2023-04-10T03:23:19.032Z,12.40
2023-04-10T03:25:51.266Z,12.30
2023-04-10T03:28:18.550Z,12.60
2023-04-10T03:30:45.452Z,12.70
2023-04-10T03:33:12.452Z,12.60
2023-04-10T03:35:39.578Z,12.50
2023-04-10T03:38:06.611Z,12.40
2023-04-10T03:40:34.460Z,12.50
2023-04-10T03:43:01.773Z,12.50
2023-04-10T03:45:28.718Z,12.40
2023-04-10T03:47:56.029Z,12.30
2023-04-10T03:50:22.942Z,12.50
2023-04-10T03:52:49.855Z,12.60
2023-04-10T03:55:19.267Z,12.50
2023-04-10T03:57:49.721Z,12.60
2023-04-10T04:00:17.348Z,12.50
2023-04-10T04:02:44.538Z,12.50
2023-04-10T04:05:11.886Z,12.50
2023-04-10T04:07:38.795Z,12.40
2023-04-10T04:10:06.298Z,12.40
2023-04-10T04:12:33.224Z,12.30
2023-04-10T04:15:00.058Z,12.30
2023-04-10T04:17:27.061Z,12.40
2023-04-10T04:19:54.085Z,12.40
2023-04-10T04:22:21.179Z,12.30
2023-04-10T04:24:48.050Z,12.40
2023-04-10T04:27:14.859Z,12.30
2023-04-10T04:29:42.111Z,12.30
2023-04-10T04:32:09.127Z,12.20
2023-04-10T04:34:36.033Z,12.20
2023-04-10T04:37:03.122Z,12.30
2023-04-10T04:39:29.919Z,12.30
2023-04-10T04:41:56.825Z,12.20
2023-04-10T04:44:23.721Z,12.20
2023-04-10T04:46:50.689Z,12.20
2023-04-10T04:49:17.477Z,12.20
2023-04-10T04:51:44.274Z,12.10
2023-04-10T04:54:11.205Z,12.20
2023-04-10T04:56:38.071Z,12.00
2023-04-10T04:59:05.270Z,11.90
2023-04-10T05:01:32.351Z,11.90
2023-04-10T05:03:59.322Z,11.90
2023-04-10T05:06:26.561Z,12.00
2023-04-10T05:08:53.723Z,12.00
2023-04-10T05:11:20.756Z,11.90
2023-04-10T05:13:47.564Z,11.90
2023-04-10T05:16:14.735Z,11.80
2023-04-10T05:18:41.916Z,11.70
2023-04-10T05:21:08.772Z,11.70
2023-04-10T05:23:36.805Z,11.70
2023-04-10T05:26:03.729Z,11.80
2023-04-10T05:28:30.865Z,11.60
2023-04-10T05:30:57.711Z,11.50
2023-04-10T05:33:24.615Z,11.50
2023-04-10T05:35:53.589Z,11.50
2023-04-10T05:38:20.977Z,11.60
2023-04-10T05:40:48.241Z,11.50
2023-04-10T05:43:15.356Z,11.50
2023-04-10T05:45:45.332Z,11.50
2023-04-10T05:48:12.363Z,11.50
2023-04-10T05:50:39.347Z,11.50
2023-04-10T05:53:06.312Z,11.70
2023-04-10T05:55:33.391Z,11.70
2023-04-10T05:58:00.568Z,11.70
2023-04-10T06:00:27.572Z,11.80
2023-04-10T06:02:54.811Z,11.70
2023-04-10T06:05:22.152Z,11.70
2023-04-10T06:07:49.099Z,11.70
2023-04-10T06:10:19.142Z,11.70
2023-04-10T06:12:46.800Z,11.80
2023-04-10T06:15:13.889Z,11.90
2023-04-10T06:17:44.730Z,11.90
2023-04-10T06:20:12.118Z,12.00
2023-04-10T06:22:39.046Z,12.10
2023-04-10T06:25:06.636Z,12.20
2023-04-10T06:27:36.286Z,12.20
2023-04-10T06:30:03.579Z,12.20
2023-04-10T06:32:30.661Z,12.10
2023-04-10T06:34:57.794Z,12.10
2023-04-10T06:37:32.742Z,12.10
2023-04-10T06:40:05.510Z,12.30
2023-04-10T06:42:32.893Z,12.40
2023-04-10T06:45:00.292Z,12.30
2023-04-10T06:47:27.401Z,12.30
2023-04-10T06:49:54.393Z,12.40
2023-04-10T06:52:21.440Z,12.60
2023-04-10T06:54:48.303Z,12.70
2023-04-10T06:57:16.040Z,12.50
2023-04-10T06:59:43.160Z,12.60
2023-04-10T07:02:10.527Z,12.70
2023-04-10T07:04:38.157Z,12.60
2023-04-10T07:07:09.745Z,12.50
2023-04-10T07:09:36.987Z,12.50
2023-04-10T07:12:04.096Z,12.60
2023-04-10T07:14:32.648Z,12.70
2023-04-10T07:16:59.642Z,12.60
2023-04-10T07:19:26.557Z,12.70
2023-04-10T07:21:53.380Z,12.80
2023-04-10T07:24:20.269Z,12.70
2023-04-10T07:26:47.246Z,12.70
2023-04-10T07:29:14.342Z,12.80
2023-04-10T07:31:42.020Z,12.70
2023-04-10T07:34:10.184Z,12.90
2023-04-10T07:36:37.298Z,13.00
2023-04-10T07:39:04.402Z,13.10
2023-04-10T07:41:31.564Z,13.20
2023-04-10T07:43:58.677Z,13.20
2023-04-10T07:46:26.726Z,13.30
2023-04-10T07:48:55.629Z,13.40
2023-04-10T07:51:22.988Z,13.30
2023-04-10T07:53:50.051Z,13.40
2023-04-10T07:56:20.901Z,13.40
2023-04-10T07:58:48.208Z,13.50
2023-04-10T08:01:15.856Z,13.60
2023-04-10T08:03:45.705Z,13.60
2023-04-10T08:06:13.218Z,13.70
2023-04-10T08:08:41.678Z,13.50
2023-04-10T08:11:28.036Z,13.60
2023-04-10T08:13:57.231Z,13.80
2023-04-10T08:16:26.532Z,13.80
2023-04-10T08:18:55.116Z,13.90
2023-04-10T08:21:22.656Z,13.90
2023-04-10T08:23:57.667Z,13.80
2023-04-10T08:26:26.502Z,13.80
2023-04-10T08:28:56.589Z,13.90
2023-04-10T08:31:25.634Z,14.00
2023-04-10T08:33:53.305Z,14.10
2023-04-10T08:36:20.759Z,14.20
2023-04-10T08:38:48.375Z,14.30
2023-04-10T08:41:17.342Z,14.30
2023-04-10T08:43:46.215Z,14.30
2023-04-10T08:46:17.244Z,14.50
2023-04-10T08:48:44.222Z,14.60
2023-04-10T08:51:20.077Z,14.70
2023-04-10T08:53:51.249Z,14.70
2023-04-10T08:56:19.203Z,14.80
2023-04-10T08:58:46.487Z,14.80
2023-04-10T09:01:13.869Z,14.80
2023-04-10T09:03:41.799Z,14.70
2023-04-10T09:06:13.991Z,14.80
2023-04-10T09:08:41.248Z,14.80
2023-04-10T09:11:08.322Z,15.00
2023-04-10T09:13:43.782Z,15.00
2023-04-10T09:16:12.385Z,15.00
2023-04-10T09:18:51.315Z,15.20
2023-04-10T09:21:22.280Z,15.20
2023-04-10T09:23:49.715Z,15.20
2023-04-10T09:26:31.117Z,15.50
2023-04-10T09:29:04.082Z,15.60
2023-04-10T09:31:36.402Z,15.70
2023-04-10T09:34:18.273Z,16.10
2023-04-10T09:36:57.142Z,16.10
2023-04-10T09:39:43.490Z,16.20
2023-04-10T09:42:15.005Z,16.10
2023-04-10T09:44:42.570Z,16.20
2023-04-10T09:47:18.597Z,16.20
2023-04-10T09:49:53.621Z,16.10
2023-04-10T09:52:26.502Z,15.90
2023-04-10T09:54:55.285Z,16.00
2023-04-10T09:57:24.094Z,16.00
2023-04-10T09:59:56.634Z,16.00
2023-04-10T10:02:25.942Z,16.00
2023-04-10T10:04:53.632Z,16.20
2023-04-10T10:07:23.434Z,16.20
2023-04-10T10:09:52.618Z,16.10
2023-04-10T10:12:30.606Z,16.10
2023-04-10T10:15:01.708Z,16.10
2023-04-10T10:17:35.094Z,16.20
2023-04-10T10:20:09.469Z,16.20
2023-04-10T10:22:37.980Z,16.40
2023-04-10T10:25:05.242Z,16.40
2023-04-10T10:27:33.748Z,16.40
2023-04-10T10:30:05.448Z,16.60
2023-04-10T10:32:40.711Z,16.60
2023-04-10T10:35:08.589Z,16.40
2023-04-10T10:37:36.344Z,16.40
2023-04-10T10:40:27.323Z,16.30
2023-04-10T10:43:08.396Z,16.30
2023-04-10T10:45:46.934Z,16.30
2023-04-10T10:48:14.744Z,16.10
2023-04-10T10:50:59.414Z,16.00
2023-04-10T10:53:46.542Z,16.00
2023-04-10T10:56:19.593Z,16.00
2023-04-10T10:58:55.904Z,15.80
2023-04-10T11:01:23.676Z,15.80
2023-04-10T11:03:51.297Z,15.60
2023-04-10T11:06:22.743Z,15.60
2023-04-10T11:08:53.157Z,15.70
2023-04-10T11:11:23.290Z,15.70
2023-04-10T11:13:50.417Z,15.70
2023-04-10T11:16:17.812Z,15.50
2023-04-10T11:18:59.240Z,15.40
2023-04-10T11:21:34.282Z,15.30
2023-04-10T11:24:01.401Z,15.10
2023-04-10T11:26:38.340Z,15.10
2023-04-10T11:29:06.234Z,15.10
2023-04-10T11:31:34.406Z,15.00
2023-04-10T11:34:03.974Z,14.90
2023-04-10T11:36:32.341Z,15.00
2023-04-10T11:39:06.011Z,15.00
2023-04-10T11:41:35.451Z,14.90
2023-04-10T11:44:04.993Z,14.90
2023-04-10T11:46:35.877Z,14.90
2023-04-10T11:49:04.266Z,15.00
2023-04-10T11:51:31.941Z,15.00
2023-04-10T11:54:13.007Z,15.00
2023-04-10T11:56:43.348Z,14.90
2023-04-10T11:59:16.240Z,14.80
2023-04-10T12:01:43.718Z,14.70
2023-04-10T12:04:17.999Z,14.60
2023-04-10T12:06:49.310Z,14.60
2023-04-10T12:09:17.497Z,14.70
2023-04-10T12:11:52.003Z,14.70
2023-04-10T12:14:20.730Z,14.80
2023-04-10T12:16:49.568Z,14.90
2023-04-10T12:19:18.088Z,14.90
2023-04-10T12:21:46.628Z,15.10
2023-04-10T12:24:13.964Z,15.10
2023-04-10T12:26:51.237Z,15.20
2023-04-10T12:29:18.204Z,15.30
2023-04-10T12:31:45.284Z,15.40
2023-04-10T12:34:19.038Z,15.40
2023-04-10T12:36:53.699Z,15.40
2023-04-10T12:39:25.055Z,15.50
2023-04-10T12:41:52.076Z,15.60
2023-04-10T12:44:20.677Z,15.50
2023-04-10T12:46:47.835Z,15.60
2023-04-10T12:49:17.002Z,15.70
2023-04-10T12:51:52.514Z,15.60
2023-04-10T12:54:29.377Z,15.70
2023-04-10T12:56:56.538Z,15.80
2023-04-10T12:59:24.692Z,15.90
2023-04-10T13:01:51.912Z,16.10
2023-04-10T13:04:19.004Z,16.20
2023-04-10T13:06:47.287Z,16.30
2023-04-10T13:09:15.174Z,16.50
2023-04-10T13:11:43.668Z,16.50
2023-04-10T13:14:11.537Z,16.60
2023-04-10T13:16:38.981Z,16.30
2023-04-10T13:19:06.089Z,16.40
2023-04-10T13:21:32.963Z,16.40
2023-04-10T13:23:59.866Z,16.40
2023-04-10T13:26:26.705Z,16.40
2023-04-10T13:28:54.049Z,16.30
2023-04-10T13:31:21.207Z,16.20
2023-04-10T13:33:48.509Z,16.10
2023-04-10T13:36:15.872Z,16.00
2023-04-10T13:38:43.220Z,16.00
2023-04-10T13:41:10.153Z,16.10
2023-04-10T13:43:37.693Z,15.80
2023-04-10T13:46:05.651Z,15.40
2023-04-10T13:48:40.190Z,15.10
2023-04-10T13:51:08.552Z,14.90
2023-04-10T13:53:35.933Z,14.60
2023-04-10T13:56:02.760Z,14.50
2023-04-10T13:58:32.001Z,14.30
2023-04-10T14:00:59.320Z,14.20
2023-04-10T14:03:26.443Z,14.10
2023-04-10T14:05:53.948Z,13.90
2023-04-10T14:08:20.843Z,13.90
2023-04-10T14:10:51.455Z,13.90
2023-04-10T14:13:19.155Z,13.90
2023-04-10T14:15:46.191Z,13.70
2023-04-10T14:18:17.424Z,13.80
2023-04-10T14:20:44.778Z,13.70
2023-04-10T14:23:18.412Z,13.80
2023-04-10T14:25:46.525Z,13.80
2023-04-10T14:28:17.682Z,13.80
2023-04-10T14:30:51.669Z,13.80
2023-04-10T14:33:20.079Z,13.80
2023-04-10T14:35:47.850Z,13.90
2023-04-10T14:38:15.889Z,13.70
2023-04-10T14:40:43.884Z,13.90
2023-04-10T14:43:10.945Z,13.90
2023-04-10T14:45:37.775Z,13.90
2023-04-10T14:48:05.038Z,13.70
2023-04-10T14:50:32.851Z,13.60
2023-04-10T14:53:00.565Z,13.70
2023-04-10T14:55:29.872Z,13.90
2023-04-10T14:57:58.584Z,13.80
2023-04-10T15:00:26.527Z,13.80
2023-04-10T15:02:53.752Z,13.70
2023-04-10T15:05:22.126Z,13.60
2023-04-10T15:07:49.160Z,13.50
2023-04-10T15:10:16.185Z,13.60
2023-04-10T15:12:43.192Z,13.60
2023-04-10T15:15:10.686Z,13.60
2023-04-10T15:17:38.267Z,13.80
2023-04-10T15:20:06.905Z,13.90
2023-04-10T15:22:35.696Z,13.80
2023-04-10T15:25:02.926Z,13.80
2023-04-10T15:27:29.946Z,13.80
2023-04-10T15:29:58.765Z,13.70
2023-04-10T15:32:25.781Z,13.70
2023-04-10T15:34:52.633Z,13.70
2023-04-10T15:37:19.546Z,13.80
2023-04-10T15:39:46.689Z,13.80
2023-04-10T15:42:15.932Z,13.70
2023-04-10T15:44:46.386Z,13.80
2023-04-10T15:47:14.389Z,13.80
2023-04-10T15:49:41.395Z,13.70
2023-04-10T15:52:08.666Z,13.80
2023-04-10T15:54:35.972Z,13.70
2023-04-10T15:57:03.719Z,13.60
2023-04-10T15:59:30.949Z,13.60
2023-04-10T16:01:57.835Z,13.60
2023-04-10T16:04:25.107Z,13.60
2023-04-10T16:06:52.061Z,13.60
2023-04-10T16:11:50.177Z,13.60
2023-04-10T16:14:19.150Z,13.70
2023-04-10T16:16:46.774Z,13.70
2023-04-10T16:19:13.704Z,13.80
2023-04-10T16:21:40.728Z,13.90
2023-04-10T16:24:07.882Z,13.80
2023-04-10T16:26:34.814Z,13.90
2023-04-10T16:29:01.864Z,13.80
2023-04-10T16:31:29.113Z,13.60
2023-04-10T16:33:56.607Z,13.60
2023-04-10T16:36:23.685Z,13.30
2023-04-10T16:38:50.606Z,13.30
2023-04-10T16:41:18.545Z,13.20
2023-04-10T16:43:45.670Z,13.30
2023-04-10T16:46:12.813Z,13.30
2023-04-10T16:48:40.158Z,13.20
2023-04-10T16:51:08.997Z,13.20
2023-04-10T16:53:36.367Z,13.40
2023-04-10T16:56:05.091Z,13.20
2023-04-10T16:58:33.979Z,13.30
2023-04-10T17:01:01.018Z,13.20
2023-04-10T17:03:28.018Z,13.20
2023-04-10T17:05:55.253Z,13.10
2023-04-10T17:08:22.081Z,13.20
2023-04-10T17:10:49.012Z,13.20
2023-04-10T17:13:15.873Z,13.10
2023-04-10T17:15:42.813Z,13.10
2023-04-10T17:18:10.129Z,13.20
2023-04-10T17:20:37.322Z,13.20
2023-04-10T17:23:04.739Z,13.20
2023-04-10T17:25:31.887Z,13.10
2023-04-10T17:27:58.910Z,13.20
2023-04-10T17:30:25.976Z,13.20
2023-04-10T17:32:53.438Z,13.40
2023-04-10T17:35:20.357Z,13.30
2023-04-10T17:37:47.369Z,13.30
2023-04-10T17:40:14.634Z,13.20
2023-04-10T17:42:41.514Z,13.10
2023-04-10T17:45:08.837Z,13.20
2023-04-10T17:47:36.100Z,13.20
2023-04-10T17:50:06.506Z,13.20
2023-04-10T17:52:33.677Z,13.30
2023-04-10T17:55:01.707Z,13.40
2023-04-10T17:57:28.938Z,13.40
2023-04-10T17:59:55.979Z,13.40
2023-04-10T18:02:22.900Z,13.40
2023-04-10T18:04:49.816Z,13.40
2023-04-10T18:07:16.844Z,13.40
2023-04-10T18:09:45.561Z,13.30
2023-04-10T18:12:12.565Z,13.30
2023-04-10T18:14:39.714Z,13.30
2023-04-10T18:17:06.722Z,13.30
2023-04-10T18:19:34.271Z,13.40
2023-04-10T18:22:01.341Z,13.50
2023-04-10T18:24:31.927Z,13.30
2023-04-10T18:26:58.860Z,13.30
2023-04-10T18:29:26.463Z,13.30
2023-04-10T18:31:53.379Z,13.40
2023-04-10T18:34:20.653Z,13.50
2023-04-10T18:36:47.462Z,13.10
2023-04-10T18:39:14.550Z,13.10
2023-04-10T18:41:41.465Z,13.00
2023-04-10T18:44:08.766Z,13.10
2023-04-10T18:46:36.021Z,13.10
2023-04-10T18:49:03.627Z,13.10
2023-04-10T18:51:33.906Z,13.10
2023-04-10T18:54:03.015Z,13.10
2023-04-10T18:56:30.309Z,13.10
2023-04-10T18:58:57.888Z,13.10
2023-04-10T19:01:24.935Z,12.90
2023-04-10T19:03:53.887Z,12.80
2023-04-10T19:06:24.678Z,12.80
2023-04-10T19:08:51.919Z,12.90
2023-04-10T19:11:19.137Z,12.90
2023-04-10T19:13:46.282Z,12.90
2023-04-10T19:16:14.837Z,13.00
2023-04-10T19:18:42.161Z,13.10
2023-04-10T19:21:09.200Z,13.00
2023-04-10T19:23:36.158Z,12.90
2023-04-10T19:26:04.394Z,13.00
2023-04-10T19:28:32.650Z,13.10
2023-04-10T19:30:59.964Z,13.10
2023-04-10T19:33:27.465Z,13.10
2023-04-10T19:35:54.392Z,13.10
2023-04-10T19:38:21.331Z,13.10
2023-04-10T19:40:48.315Z,13.00
2023-04-10T19:43:15.316Z,13.10
2023-04-10T19:45:42.406Z,13.00
2023-04-10T19:48:09.778Z,13.00
2023-04-10T19:50:36.696Z,12.90
2023-04-10T19:53:05.147Z,12.80
2023-04-10T19:55:32.011Z,12.80
2023-04-10T19:57:59.003Z,12.80
2023-04-10T20:00:26.090Z,12.80
2023-04-10T20:02:53.216Z,12.80
2023-04-10T20:05:20.424Z,12.70
2023-04-10T20:07:47.742Z,12.60
2023-04-10T20:10:14.549Z,12.50
2023-04-10T20:12:41.396Z,12.50
2023-04-10T20:15:09.324Z,12.60
2023-04-10T20:17:36.403Z,12.50
2023-04-10T20:20:03.635Z,12.40
2023-04-10T20:22:31.593Z,12.50
2023-04-10T20:24:58.570Z,12.40
2023-04-10T20:27:25.647Z,12.40
2023-04-10T20:29:52.628Z,12.30
2023-04-10T20:32:19.483Z,12.30
2023-04-10T20:34:47.554Z,12.40
2023-04-10T20:37:18.868Z,12.30
2023-04-10T20:39:45.845Z,12.20
2023-04-10T20:42:12.797Z,12.30
2023-04-10T20:44:39.690Z,12.30
2023-04-10T20:47:07.361Z,12.20
2023-04-10T20:49:34.367Z,12.20
2023-04-10T20:52:01.320Z,12.30
2023-04-10T20:54:28.204Z,12.10
2023-04-10T20:56:56.952Z,12.30
2023-04-10T20:59:24.150Z,12.20
2023-04-10T21:01:51.503Z,12.20
2023-04-10T21:04:18.545Z,12.20
2023-04-10T21:06:45.656Z,12.20
2023-04-10T21:09:12.706Z,12.20
2023-04-10T21:11:39.659Z,12.20
2023-04-10T21:14:06.818Z,12.00
2023-04-10T21:16:37.601Z,12.10
2023-04-10T21:19:04.818Z,12.10
2023-04-10T21:21:31.897Z,12.00
2023-04-10T21:23:58.772Z,11.90
2023-04-10T21:26:25.834Z,11.90
2023-04-10T21:28:53.153Z,12.00
2023-04-10T21:31:20.574Z,12.00
2023-04-10T21:33:47.600Z,11.90
2023-04-10T21:36:14.450Z,11.90
2023-04-10T21:38:41.518Z,11.90
2023-04-10T21:41:08.305Z,11.80
2023-04-10T21:43:35.592Z,11.80
2023-04-10T21:46:03.175Z,11.80
2023-04-10T21:48:30.512Z,11.90
2023-04-10T21:50:57.553Z,11.90
2023-04-10T21:53:24.430Z,11.90
2023-04-10T21:55:52.272Z,11.80
2023-04-10T21:58:19.446Z,11.70
2023-04-10T22:00:47.441Z,11.80
2023-04-10T22:03:16.280Z,11.70
2023-04-10T22:05:43.821Z,11.70
2023-04-10T22:08:10.976Z,11.70
2023-04-10T22:10:38.153Z,11.70
2023-04-10T22:13:05.227Z,11.70
2023-04-10T22:15:32.205Z,11.70
2023-04-10T22:17:59.500Z,11.70
2023-04-10T22:20:26.540Z,11.70
2023-04-10T22:22:53.415Z,11.60
2023-04-10T22:25:20.403Z,11.70
2023-04-10T22:27:48.483Z,11.60
2023-04-10T22:30:15.637Z,11.50
2023-04-10T22:32:42.459Z,11.50
2023-04-10T22:35:09.395Z,11.60
2023-04-10T22:37:36.202Z,11.60
2023-04-10T22:40:03.285Z,11.50
2023-04-10T22:42:31.950Z,11.50
2023-04-10T22:44:59.338Z,11.50
2023-04-10T22:47:27.085Z,11.60
2023-04-10T22:49:54.243Z,11.60
2023-04-10T22:52:21.145Z,11.50
2023-04-10T22:54:48.035Z,11.50
2023-04-10T22:57:14.873Z,11.60
2023-04-10T22:59:41.957Z,11.60
2023-04-10T23:02:09.060Z,11.50
2023-04-10T23:04:36.154Z,11.50
2023-04-10T23:07:03.085Z,11.70
2023-04-10T23:09:30.048Z,11.60
2023-04-10T23:11:57.026Z,11.60
2023-04-10T23:14:24.018Z,11.40
2023-04-10T23:16:51.055Z,11.40
2023-04-10T23:19:18.928Z,11.40
2023-04-10T23:21:46.014Z,11.30
2023-04-10T23:24:13.027Z,11.20
2023-04-10T23:26:39.880Z,11.30
2023-04-10T23:29:06.921Z,11.40
2023-04-10T23:31:36.245Z,11.40
2023-04-10T23:34:03.916Z,11.40
2023-04-10T23:36:31.586Z,11.20
2023-04-10T23:38:58.572Z,11.30
2023-04-10T23:41:25.777Z,11.30
2023-04-10T23:43:52.758Z,11.30
2023-04-10T23:46:19.798Z,11.20
2023-04-10T23:48:46.787Z,11.20
2023-04-10T23:51:13.779Z,11.20
2023-04-10T23:53:40.653Z,11.20
2023-04-10T23:56:07.991Z,11.20
2023-04-10T23:58:34.947Z,11.10
